CDT,Max TemperatureF,Mean TemperatureF,Min TemperatureF,Max Dew PointF,MeanDew PointF,Min DewpointF,Max Humidity, Mean Humidity, Min Humidity, Max Sea Level PressureIn, Mean Sea Level PressureIn, Min Sea Level PressureIn, Max VisibilityMiles, Mean VisibilityMiles, Min VisibilityMiles, Max Wind SpeedMPH, Mean Wind SpeedMPH, Max Gust SpeedMPH,PrecipitationIn, CloudCover, Events, WindDirDegrees
2013-7-1,73,68,64,67,64,60,92,85,78,29.95,29.92,29.87,10,9,2,13,7,18,0.98,1,Rain-Thunderstorm,352
2013-7-2,68,66,65,66,65,63,93,91,87,30.03,29.96,29.91,10,6,1,13,8,17,2.14,3,Rain-Thunderstorm,357
2013-7-3,81,74,65,68,63,58,93,75,49,30.10,30.07,30.01,10,8,2,7,2,,0.01,0,Rain,316
2013-7-4,85,72,60,68,64,59,94,72,42,30.12,30.08,30.03,10,8,4,7,2,,0.00,0,,93
2013-7-5,82,74,65,71,68,64,94,81,60,30.11,30.07,30.03,10,8,0,10,2,,0.00,1,Fog,102
2013-7-6,87,77,67,71,68,61,92,75,52,30.08,30.05,29.99,10,10,7,14,4,20,0.06,0,Rain-Thunderstorm,152
2013-7-7,90,77,64,74,69,62,93,75,53,30.09,30.06,30.03,10,10,7,10,3,,0.06,0,,172
2013-7-8,91,82,74,75,72,70,86,70,51,30.13,30.08,30.05,10,10,10,14,7,17,0.00,0,,190
2013-7-9,95,86,78,77,74,72,83,67,48,30.08,30.03,29.97,10,10,10,13,7,16,0.00,0,,195
2013-7-10,87,82,76,77,74,71,88,78,63,30.00,29.95,29.91,10,10,7,16,6,23,0.03,0,Rain-Thunderstorm,247
2013-7-11,83,74,65,70,64,58,91,68,45,30.07,30.03,29.98,10,10,7,12,5,18,0.00,0,,22
2013-7-12,85,73,61,66,61,56,93,67,40,30.13,30.09,30.05,10,10,7,7,2,,0.10,0,,51
2013-7-13,86,74,61,66,63,59,94,69,47,30.11,30.07,30.03,10,9,3,9,2,17,0.00,0,Rain,53
2013-7-14,90,78,66,76,70,64,92,76,51,30.16,30.12,30.06,10,9,5,13,4,18,0.00,0,,98
2013-7-15,90,82,73,77,74,71,92,78,63,30.26,30.21,30.16,10,9,2,9,2,,0.14,0,Rain,120
2013-7-16,93,82,72,77,73,69,93,73,46,30.33,30.29,30.25,10,9,3,6,1,,0.00,0,,111
2013-7-17,94,84,73,79,74,71,93,76,48,30.35,30.29,30.21,10,8,5,5,0,,0.00,0,,320
2013-7-18,95,84,74,78,75,70,93,76,43,30.23,30.14,30.05,10,7,2,8,1,,0.00,0,,162
2013-7-19,94,84,74,76,73,70,90,68,46,30.05,29.99,29.91,10,8,3,12,5,,0.00,0,,193
2013-7-20,95,84,73,75,73,71,94,69,49,29.94,29.90,29.79,10,10,3,12,7,20,0.07,0,Rain-Thunderstorm,207
2013-7-21,85,78,71,76,72,70,93,84,67,29.98,29.92,29.87,10,8,0,12,1,16,0.03,2,Fog-Rain-Thunderstorm,155
2013-7-22,89,81,73,76,72,70,93,76,54,29.87,29.85,29.80,10,8,2,12,3,17,0.16,4,Rain-Thunderstorm,246
2013-7-23,93,84,75,76,73,66,93,73,51,29.91,29.83,29.78,10,9,4,13,5,17,0.01,0,,288
2013-7-24,80,72,63,67,59,53,90,62,43,30.04,29.98,29.91,10,10,10,9,5,18,0.00,0,,15
2013-7-25,81,70,58,66,59,54,94,70,41,30.13,30.08,30.03,10,10,10,8,1,,0.00,0,,14
2013-7-26,80,70,60,69,64,58,93,80,56,30.09,30.04,29.96,10,10,7,10,3,,0.01,0,Rain,205
2013-7-27,79,68,56,70,59,51,92,68,40,30.01,29.97,29.95,10,10,7,16,6,24,0.00,0,,306
2013-7-28,81,66,52,62,54,50,92,67,36,30.07,30.03,30.00,10,10,10,12,2,17,0.00,0,,247
2013-7-29,83,68,55,68,61,54,94,73,43,30.18,30.14,30.06,10,10,7,8,1,,0.00,0,,180
2013-7-30,73,70,68,71,67,64,93,87,73,30.16,30.10,30.04,10,8,2,10,4,,0.74,2,Rain,124
2013-7-31,86,78,71,73,71,68,94,81,63,30.05,30.02,29.99,10,7,0,15,3,17,0.00,2,Fog,320